Arklow Rogue — EIGD — position and weather

sailwx.info

Track history (hours):
 
Tides and Currents Weather Stations Pressure Air Temp Water Temp Dewpoint Dewpoint Depression Visibility Wind Speed Wind Dir Waves Ship Positions

Arklow Rogue

Last reported at 2015-Mar-28 21:33 UTC. Time now 2015-Mar-28 22:13 UTC.
Position N 50°49' W 001°18'.

Length 90 m; draft 3.4 m.

Type: Cargo ship. MMSI: 250000960.

Date/timePositionNaut miles runAvg speedWind from/ knotsBaromVisibWave heightAir tempDewpointWater temp
2015-Mar-28 21:33N 50°49' W 001°18'5 2.1
2015-Mar-28 19:09N 50°45' W 001°22'5 8.4
2015-Mar-28 18:33N 50°43' W 001°30'1111.2
2015-Mar-28 17:33N 50°37' W 001°44'1312.6
2015-Mar-28 16:33N 50°32' W 002°03'1513.5
2015-Mar-28 15:28N 50°27' W 002°24'1213.4
2015-Mar-28 14:32N 50°23' W 002°43'1313.2
2015-Mar-28 13:33N 50°18' W 003°02'1313.1
2015-Mar-28 12:33N 50°13' W 003°21'199 6.4
2015-Mar-27 05:28N 53°33' W 003°28'1112.7
2015-Mar-27 04:33N 53°32' W 003°09'1111.1
2015-Mar-27 03:33N 53°23' W 002°58'3 0.2
2015-Mar-26 12:05N 53°21' W 002°54'0 0.0
2015-Mar-25 16:17N 53°21' W 002°54'0 0.0
2015-Mar-25 13:29N 53°21' W 002°54'0 0.0
2015-Mar-25 07:17N 53°21' W 002°54'0 0.0
2015-Mar-25 06:30N 53°21' W 002°54'0 0.0
2015-Mar-25 05:11N 53°21' W 002°54'0 0.0
2015-Mar-25 04:23N 53°21' W 002°54'0 0.0
2015-Mar-25 02:11N 53°21' W 002°54'0 0.0
2015-Mar-25 00:18N 53°21' W 002°54'0 0.0
2015-Mar-24 23:24N 53°21' W 002°54'0 0.0
2015-Mar-24 22:23N 53°21' W 002°54'0 0.0
2015-Mar-24 21:17N 53°21' W 002°54'0 0.0
2015-Mar-24 19:23N 53°21' W 002°54'0 0.0
2015-Mar-24 14:33N 53°21' W 002°54'4 3.6
2015-Mar-24 13:33N 53°23' W 002°59'8 8.3
2015-Mar-24 12:34N 53°30' W 003°06'9 8.8
2015-Mar-24 11:33N 53°31' W 003°21'4 3.8
2015-Mar-24 10:33N 53°30' W 003°27'201 5.7
2015-Mar-22 23:15N 50°10' W 003°08'810.0
2015-Mar-22 22:29N 50°11' W 002°56'6310.4
2015-Mar-22 16:25N 50°23' W 001°20'5313.1
2015-Mar-22 12:21N 50°33' E 000°03'18 9.0
2015-Mar-22 10:20N 50°38' E 000°30'7 8.8
2015-Mar-22 09:33N 50°41' E 000°40'1110.8
2015-Mar-22 08:33N 50°48' E 000°54'1412.8
2015-Mar-22 07:29N 50°56' E 001°11'1213.3
2015-Mar-22 06:34N 51°03' E 001°26'1211.6
2015-Mar-22 05:34N 51°11' E 001°40'1010.3
2015-Mar-22 04:34N 51°20' E 001°49'9 9.0
2015-Mar-22 03:34N 51°28' E 001°55'9 8.6
2015-Mar-22 02:34N 51°34' E 002°05'9 8.8
2015-Mar-22 01:33N 51°40' E 002°15'14510.3
2015-Mar-21 11:28N 53°31' E 004°50'910.0
2015-Mar-21 10:34N 53°34' E 005°05'10 9.7
2015-Mar-21 09:34N 53°37' E 005°20'10 9.7
2015-Mar-21 08:34N 53°40' E 005°36'10 9.7
2015-Mar-21 07:33N 53°43' E 005°51'4611.2
2015-Mar-21 03:26N 53°56' E 007°06'1112.0
2015-Mar-21 02:33N 53°58' E 007°24'1110.6
2015-Mar-21 01:33N 53°57' E 007°42'10 9.6
2015-Mar-21 00:33N 53°52' E 007°55'1110.8
2015-Mar-20 23:33N 53°46' E 008°11'10 9.6
2015-Mar-20 22:33N 53°40' E 008°23'9 8.8
2015-Mar-20 21:33N 53°33' E 008°33'3 3.0
2015-Mar-20 20:26N 53°30' E 008°31'0 0.0
2015-Mar-20 19:29N 53°30' E 008°31'0 0.0
2015-Mar-20 18:32N 53°30' E 008°31'0 0.0
2015-Mar-20 17:17N 53°30' E 008°31'0 0.0
2015-Mar-20 16:29N 53°30' E 008°31'0 0.0
2015-Mar-20 15:29N 53°30' E 008°31'0 0.0
2015-Mar-20 14:29N 53°30' E 008°31'0 0.0
2015-Mar-20 13:14N 53°30' E 008°31'0 0.0
2015-Mar-20 12:29N 53°30' E 008°31'0 0.0
2015-Mar-20 11:32N 53°30' E 008°31'0 0.0
2015-Mar-20 10:32N 53°30' E 008°31'0 0.0
2015-Mar-20 09:29N 53°30' E 008°31'0 0.0
2015-Mar-20 08:32N 53°30' E 008°31'0 0.0
2015-Mar-20 07:32N 53°30' E 008°31'0 0.0
2015-Mar-20 06:26N 53°30' E 008°31'0 0.0
2015-Mar-20 05:32N 53°30' E 008°31'2 1.5
2015-Mar-20 04:32N 53°31' E 008°33'0 0.0
2015-Mar-20 03:32N 53°31' E 008°33'0 0.0
2015-Mar-20 02:29N 53°31' E 008°33'0 0.1
2015-Mar-20 01:29N 53°31' E 008°33'0 0.1
2015-Mar-20 00:29N 53°31' E 008°33'0 0.0
2015-Mar-19 23:32N 53°31' E 008°33'0 0.0
2015-Mar-19 22:29N 53°31' E 008°33'0 0.0
2015-Mar-19 21:29N 53°31' E 008°33'0 0.2
2015-Mar-19 20:33N 53°31' E 008°33'1110.8
2015-Mar-19 19:34N 53°40' E 008°23'1515.1
2015-Mar-19 18:33N 53°50' E 008°04'1313.5
2015-Mar-19 17:33N 53°54' E 007°42'1312.8
2015-Mar-19 16:33N 54°05' E 007°31'1111.4
2015-Mar-19 15:34N 54°14' E 007°20'1111.1
2015-Mar-19 14:33N 54°18' E 007°02'1211.0
2015-Mar-19 13:29N 54°21' E 006°43'1511.1
2015-Mar-19 12:09N 54°26' E 006°18'711.3
2015-Mar-19 11:33N 54°28' E 006°07'1211.5
2015-Mar-19 10:32N 54°29' E 005°47'1211.8
2015-Mar-19 09:33N 54°30' E 005°28'1212.0
2015-Mar-19 08:32N 54°31' E 005°06'1111.8
2015-Mar-19 07:34N 54°32' E 004°47'  
Track history (hours):
 
Tides and Currents Weather Stations Pressure Air Temp Water Temp Dewpoint Dewpoint Depression Visibility Wind Speed Wind Dir Waves Ship Positions

Arklow Rogue

Last reported at 2015-Mar-28 21:33 UTC. Time now 2015-Mar-28 22:13 UTC.
Position N 50°49' W 001°18'.

Length 90 m; draft 3.4 m.

Type: Cargo ship. MMSI: 250000960.

Date/timePositionNaut miles runAvg speedWind from/ knotsBaromVisibWave heightAir tempDewpointWater temp
2015-Mar-28 21:33N 50°49' W 001°18'5 2.1
2015-Mar-28 19:09N 50°45' W 001°22'5 8.4
2015-Mar-28 18:33N 50°43' W 001°30'1111.2
2015-Mar-28 17:33N 50°37' W 001°44'1312.6
2015-Mar-28 16:33N 50°32' W 002°03'1513.5
2015-Mar-28 15:28N 50°27' W 002°24'1213.4
2015-Mar-28 14:32N 50°23' W 002°43'1313.2
2015-Mar-28 13:33N 50°18' W 003°02'1313.1
2015-Mar-28 12:33N 50°13' W 003°21'199 6.4
2015-Mar-27 05:28N 53°33' W 003°28'1112.7
2015-Mar-27 04:33N 53°32' W 003°09'1111.1
2015-Mar-27 03:33N 53°23' W 002°58'3 0.2
2015-Mar-26 12:05N 53°21' W 002°54'0 0.0
2015-Mar-25 16:17N 53°21' W 002°54'0 0.0
2015-Mar-25 13:29N 53°21' W 002°54'0 0.0
2015-Mar-25 07:17N 53°21' W 002°54'0 0.0
2015-Mar-25 06:30N 53°21' W 002°54'0 0.0
2015-Mar-25 05:11N 53°21' W 002°54'0 0.0
2015-Mar-25 04:23N 53°21' W 002°54'0 0.0
2015-Mar-25 02:11N 53°21' W 002°54'0 0.0
2015-Mar-25 00:18N 53°21' W 002°54'0 0.0
2015-Mar-24 23:24N 53°21' W 002°54'0 0.0
2015-Mar-24 22:23N 53°21' W 002°54'0 0.0
2015-Mar-24 21:17N 53°21' W 002°54'0 0.0
2015-Mar-24 19:23N 53°21' W 002°54'0 0.0
2015-Mar-24 14:33N 53°21' W 002°54'4 3.6
2015-Mar-24 13:33N 53°23' W 002°59'8 8.3
2015-Mar-24 12:34N 53°30' W 003°06'9 8.8
2015-Mar-24 11:33N 53°31' W 003°21'4 3.8
2015-Mar-24 10:33N 53°30' W 003°27'201 5.7
2015-Mar-22 23:15N 50°10' W 003°08'810.0
2015-Mar-22 22:29N 50°11' W 002°56'6310.4
2015-Mar-22 16:25N 50°23' W 001°20'5313.1
2015-Mar-22 12:21N 50°33' E 000°03'18 9.0
2015-Mar-22 10:20N 50°38' E 000°30'7 8.8
2015-Mar-22 09:33N 50°41' E 000°40'1110.8
2015-Mar-22 08:33N 50°48' E 000°54'1412.8
2015-Mar-22 07:29N 50°56' E 001°11'1213.3
2015-Mar-22 06:34N 51°03' E 001°26'1211.6
2015-Mar-22 05:34N 51°11' E 001°40'1010.3
2015-Mar-22 04:34N 51°20' E 001°49'9 9.0
2015-Mar-22 03:34N 51°28' E 001°55'9 8.6
2015-Mar-22 02:34N 51°34' E 002°05'9 8.8
2015-Mar-22 01:33N 51°40' E 002°15'14510.3
2015-Mar-21 11:28N 53°31' E 004°50'910.0
2015-Mar-21 10:34N 53°34' E 005°05'10 9.7
2015-Mar-21 09:34N 53°37' E 005°20'10 9.7
2015-Mar-21 08:34N 53°40' E 005°36'10 9.7
2015-Mar-21 07:33N 53°43' E 005°51'4611.2
2015-Mar-21 03:26N 53°56' E 007°06'1112.0
2015-Mar-21 02:33N 53°58' E 007°24'1110.6
2015-Mar-21 01:33N 53°57' E 007°42'10 9.6
2015-Mar-21 00:33N 53°52' E 007°55'1110.8
2015-Mar-20 23:33N 53°46' E 008°11'10 9.6
2015-Mar-20 22:33N 53°40' E 008°23'9 8.8
2015-Mar-20 21:33N 53°33' E 008°33'3 3.0
2015-Mar-20 20:26N 53°30' E 008°31'0 0.0
2015-Mar-20 19:29N 53°30' E 008°31'0 0.0
2015-Mar-20 18:32N 53°30' E 008°31'0 0.0
2015-Mar-20 17:17N 53°30' E 008°31'0 0.0
2015-Mar-20 16:29N 53°30' E 008°31'0 0.0
2015-Mar-20 15:29N 53°30' E 008°31'0 0.0
2015-Mar-20 14:29N 53°30' E 008°31'0 0.0
2015-Mar-20 13:14N 53°30' E 008°31'0 0.0
2015-Mar-20 12:29N 53°30' E 008°31'0 0.0
2015-Mar-20 11:32N 53°30' E 008°31'0 0.0
2015-Mar-20 10:32N 53°30' E 008°31'0 0.0
2015-Mar-20 09:29N 53°30' E 008°31'0 0.0
2015-Mar-20 08:32N 53°30' E 008°31'0 0.0
2015-Mar-20 07:32N 53°30' E 008°31'0 0.0
2015-Mar-20 06:26N 53°30' E 008°31'0 0.0
2015-Mar-20 05:32N 53°30' E 008°31'2 1.5
2015-Mar-20 04:32N 53°31' E 008°33'0 0.0
2015-Mar-20 03:32N 53°31' E 008°33'0 0.0
2015-Mar-20 02:29N 53°31' E 008°33'0 0.1
2015-Mar-20 01:29N 53°31' E 008°33'0 0.1
2015-Mar-20 00:29N 53°31' E 008°33'0 0.0
2015-Mar-19 23:32N 53°31' E 008°33'0 0.0
2015-Mar-19 22:29N 53°31' E 008°33'0 0.0
2015-Mar-19 21:29N 53°31' E 008°33'0 0.2
2015-Mar-19 20:33N 53°31' E 008°33'1110.8
2015-Mar-19 19:34N 53°40' E 008°23'1515.1
2015-Mar-19 18:33N 53°50' E 008°04'1313.5
2015-Mar-19 17:33N 53°54' E 007°42'1312.8
2015-Mar-19 16:33N 54°05' E 007°31'1111.4
2015-Mar-19 15:34N 54°14' E 007°20'1111.1
2015-Mar-19 14:33N 54°18' E 007°02'1211.0
2015-Mar-19 13:29N 54°21' E 006°43'1511.1
2015-Mar-19 12:09N 54°26' E 006°18'711.3
2015-Mar-19 11:33N 54°28' E 006°07'1211.5
2015-Mar-19 10:32N 54°29' E 005°47'1211.8
2015-Mar-19 09:33N 54°30' E 005°28'1212.0
2015-Mar-19 08:32N 54°31' E 005°06'1111.8
2015-Mar-19 07:34N 54°32' E 004°47'  

Dump ship's entire track history